Time;durP1;ratioP1;P1;durP2;ratioP2;P2;SDS_P1;SDS_P2;PMS_P1;PMS_P2;Temp;Humidity;BMP_temperature;BMP_pressure;BME280_temperature;BME280_humidity;BME280_pressure;Samples;Min_cycle;Max_cycle;Signal;HPM_P1;HPM_P2
2021/06/21 00:01:08;;;;;;;18.83;9.47;;;;;;;20.86;60.72;98493.18;125693;1097;102993;-75
2021/06/21 00:03:37;;;;;;;18.43;9.90;;;;;;;20.89;60.83;98497.38;125684;1095;102916;-76
2021/06/21 00:06:08;;;;;;;18.60;9.47;;;;;;;20.90;60.67;98496.36;125675;1096;102941;-76
2021/06/21 00:08:40;;;;;;;20.37;9.20;;;;;;;20.91;60.84;98496.15;125659;1096;103038;-76
2021/06/21 00:11:08;;;;;;;18.10;9.37;;;;;;;20.93;60.75;98499.50;125706;1096;102914;-75
2021/06/21 00:13:37;;;;;;;18.13;9.43;;;;;;;20.93;60.92;98504.91;125670;1095;103032;-76
2021/06/21 00:16:06;;;;;;;21.60;10.23;;;;;;;20.92;60.73;98489.71;125571;1095;102911;-77
2021/06/21 00:18:34;;;;;;;21.83;10.43;;;;;;;20.90;60.76;98491.77;125629;1095;102919;-77
2021/06/21 00:21:05;;;;;;;19.07;9.67;;;;;;;20.89;61.04;98481.98;125469;1095;102933;-77
2021/06/21 00:23:33;;;;;;;17.27;9.13;;;;;;;20.87;61.22;98483.22;125558;1094;103090;-76
2021/06/21 00:26:02;;;;;;;18.23;9.20;;;;;;;20.84;60.94;98481.72;125658;1095;103100;-76
2021/06/21 00:28:30;;;;;;;16.57;9.00;;;;;;;20.83;60.79;98488.16;125700;1095;103231;-76
2021/06/21 00:30:59;;;;;;;16.97;9.87;;;;;;;20.80;61.03;98492.09;125700;1097;103026;-76
2021/06/21 00:33:27;;;;;;;20.20;9.10;;;;;;;20.78;61.37;98486.05;125671;1096;103073;-76
2021/06/21 00:35:55;;;;;;;20.57;9.73;;;;;;;20.75;61.35;98489.09;125702;1096;102911;-75
2021/06/21 00:38:24;;;;;;;17.77;10.10;;;;;;;20.71;61.08;98478.88;125714;1095;103028;-76
2021/06/21 00:40:53;;;;;;;18.00;9.47;;;;;;;20.69;60.96;98481.75;125681;1094;102945;-76
2021/06/21 00:43:21;;;;;;;20.10;10.03;;;;;;;20.65;61.23;98477.76;125684;1095;103153;-77
2021/06/21 00:45:50;;;;;;;15.97;9.27;;;;;;;20.63;61.13;98477.11;125701;1097;103093;-75
2021/06/21 00:48:18;;;;;;;19.60;9.30;;;;;;;20.60;61.18;98475.64;125712;1096;103319;-75
2021/06/21 00:50:47;;;;;;;21.97;9.90;;;;;;;20.57;61.39;98476.02;125726;1095;103090;-75
2021/06/21 00:53:20;;;;;;;22.63;9.87;;;;;;;20.52;61.43;98471.20;125675;1096;103023;-76
2021/06/21 00:55:48;;;;;;;19.48;8.93;;;;;;;20.48;61.35;98479.86;125583;1096;102929;-75
2021/06/21 00:58:17;;;;;;;16.73;8.90;;;;;;;20.44;61.44;98482.11;125701;1097;103018;-74
2021/06/21 01:00:48;;;;;;;17.77;9.47;;;;;;;20.42;61.51;98489.57;125683;1096;103416;-75
2021/06/21 01:03:17;;;;;;;19.73;9.87;;;;;;;20.38;61.43;98489.09;125642;1097;103000;-76
2021/06/21 01:05:46;;;;;;;18.53;9.63;;;;;;;20.34;61.45;98485.13;125601;1097;103093;-75
2021/06/21 01:08:14;;;;;;;20.37;9.77;;;;;;;20.31;61.66;98495.45;125617;1096;103065;-74
2021/06/21 01:10:50;;;;;;;19.10;9.90;;;;;;;20.27;61.63;98500.41;125691;1095;102940;-75
2021/06/21 01:13:53;;;;;;;23.23;10.23;;;;;;;20.21;61.46;98485.77;125723;1097;103383;-77
2021/06/21 01:17:04;;;;;;;20.50;10.78;;;;;;;20.16;61.83;98490.08;125700;1096;102937;-77
2021/06/21 01:19:45;;;;;;;20.33;10.13;;;;;;;20.10;61.67;98496.22;125633;1095;103007;-76
2021/06/21 01:22:25;;;;;;;20.60;11.10;;;;;;;20.08;61.73;98496.42;125654;1096;102919;-75
2021/06/21 01:25:23;;;;;;;20.28;10.43;;;;;;;20.05;61.70;98494.91;125670;1097;102916;-74
2021/06/21 01:28:02;;;;;;;20.27;11.03;;;;;;;20.02;61.84;98489.89;125675;1096;103010;-74
2021/06/21 01:30:39;;;;;;;19.83;10.73;;;;;;;20.00;61.83;98481.14;125699;1096;103048;-75
2021/06/21 01:33:12;;;;;;;34.20;12.77;;;;;;;19.96;61.97;98476.31;125677;1096;103028;-74
2021/06/21 01:36:06;;;;;;;20.07;10.30;;;;;;;19.94;62.19;98479.21;125676;1096;103099;-76
2021/06/21 01:38:44;;;;;;;;;;;;;;;19.90;62.61;98476.03;125690;1095;103029;-76
2021/06/21 01:41:25;;;;;;;21.10;9.57;;;;;;;19.88;62.15;98478.08;125665;1095;103003;-76
2021/06/21 01:43:58;;;;;;;18.13;9.60;;;;;;;19.86;62.00;98471.17;125664;1096;103008;-76
2021/06/21 01:46:34;;;;;;;18.27;9.80;;;;;;;19.82;62.10;98467.17;125674;1096;103424;-77
2021/06/21 01:49:29;;;;;;;21.23;9.90;;;;;;;19.81;62.36;98473.59;125678;1096;102949;-77
2021/06/21 01:52:03;;;;;;;22.03;10.50;;;;;;;19.80;62.55;98470.04;125687;1096;103039;-76
2021/06/21 01:54:36;;;;;;;18.67;8.67;;;;;;;19.72;62.12;98470.16;125695;1096;102916;-75
2021/06/21 01:57:08;;;;;;;15.70;7.93;;;;;;;19.53;62.26;98464.27;125728;1094;102991;-76
2021/06/21 01:59:37;;;;;;;19.70;8.03;;;;;;;19.42;61.99;98475.50;125655;1097;103000;-76
2021/06/21 02:02:08;;;;;;;15.30;7.63;;;;;;;19.30;62.39;98465.17;125701;1097;102939;-74
2021/06/21 02:04:37;;;;;;;15.23;7.80;;;;;;;19.21;62.62;98479.74;125670;1096;103022;-77
2021/06/21 02:07:10;;;;;;;19.10;8.40;;;;;;;19.24;62.54;98478.53;125756;1096;103026;-76
2021/06/21 02:09:41;;;;;;;19.15;8.53;;;;;;;19.15;62.55;98478.63;125706;1096;102932;-75
2021/06/21 02:12:20;;;;;;;15.60;7.80;;;;;;;19.09;62.57;98473.10;125649;1096;103099;-76
2021/06/21 02:14:52;;;;;;;19.10;7.90;;;;;;;19.12;62.98;98467.35;125697;1096;103012;-76
2021/06/21 02:17:30;;;;;;;18.27;7.47;;;;;;;19.15;62.71;98475.08;125697;1095;102921;-76
2021/06/21 02:20:03;;;;;;;17.70;7.83;;;;;;;19.11;63.00;98465.67;125688;1096;102940;-76
2021/06/21 02:22:34;;;;;;;16.03;7.68;;;;;;;19.12;62.96;98467.35;125707;1096;102996;-79
2021/06/21 02:25:09;;;;;;;19.83;8.07;;;;;;;19.16;63.28;98466.79;125626;1096;103006;-77
2021/06/21 02:27:41;;;;;;;17.97;8.30;;;;;;;19.17;63.09;98462.25;125715;1096;103431;-77
2021/06/21 02:30:17;;;;;;;19.90;8.53;;;;;;;19.13;63.04;98467.19;125681;1097;102974;-80
2021/06/21 02:32:50;;;;;;;16.55;8.15;;;;;;;19.16;63.43;98461.40;125684;1096;103001;-75
2021/06/21 02:35:18;;;;;;;21.58;8.28;;;;;;;19.15;63.71;98462.45;125703;1096;102925;-76
2021/06/21 02:37:50;;;;;;;17.63;7.97;;;;;;;19.00;63.21;98459.69;125664;1096;102941;-75
2021/06/21 02:40:21;;;;;;;16.27;7.30;;;;;;;18.91;63.40;98455.38;125710;1096;103001;-78
2021/06/21 02:42:53;;;;;;;18.60;8.83;;;;;;;18.81;63.55;98463.68;125675;1096;103004;-76
2021/06/21 02:45:21;;;;;;;20.33;8.07;;;;;;;18.81;63.59;98469.06;125652;1097;103095;-77
2021/06/21 02:47:57;;;;;;;19.43;7.83;;;;;;;18.84;63.41;98460.63;125705;1096;102916;-76
2021/06/21 02:50:25;;;;;;;19.13;8.70;;;;;;;18.81;63.77;98458.29;125655;1095;102937;-76
2021/06/21 02:53:21;;;;;;;20.03;8.33;;;;;;;18.73;63.56;98461.89;125704;1095;103009;-76
2021/06/21 02:56:23;;;;;;;20.23;9.13;;;;;;;18.71;63.69;98468.48;125643;1096;103001;-75
2021/06/21 02:59:08;;;;;;;13.97;6.67;;;;;;;18.74;64.05;98470.83;125704;1096;102913;-75
2021/06/21 03:01:52;;;;;;;11.93;5.80;;;;;;;18.67;64.01;98475.25;125655;1097;103023;-74
2021/06/21 03:04:26;;;;;;;16.10;6.77;;;;;;;18.52;63.94;98467.92;125468;1096;103037;-74
2021/06/21 03:06:58;;;;;;;;;;;;;;;18.39;63.54;98473.89;125718;1097;103137;-73
2021/06/21 03:09:30;;;;;;;15.50;7.23;;;;;;;18.28;63.82;98468.89;125661;1097;103060;-73
2021/06/21 03:12:03;;;;;;;15.67;7.13;;;;;;;18.25;64.29;98469.24;125525;1096;103132;-73
2021/06/21 03:14:35;;;;;;;;;;;;;;;18.23;64.75;98468.58;125763;1095;103069;-76
2021/06/21 03:17:06;;;;;;;14.43;7.03;;;;;;;18.23;64.55;98465.89;125682;1097;103060;-76
2021/06/21 03:19:42;;;;;;;15.17;6.93;;;;;;;18.25;64.73;98471.94;125675;1094;103001;-76
2021/06/21 03:22:11;;;;;;;16.83;7.40;;;;;;;18.31;64.38;98465.85;125607;1094;102916;-78
2021/06/21 03:24:43;;;;;;;16.10;7.30;;;;;;;18.37;64.94;98467.84;125679;1095;103017;-75
2021/06/21 03:27:12;;;;;;;13.60;7.20;;;;;;;18.44;64.50;98468.81;125630;1097;102988;-75
2021/06/21 03:29:43;;;;;;;15.93;7.40;;;;;;;18.52;64.51;98464.41;125629;1097;102919;-76
2021/06/21 03:32:37;;;;;;;16.37;6.53;;;;;;;18.59;64.62;98457.27;125709;1095;103078;-74
2021/06/21 03:35:12;;;;;;;17.80;6.43;;;;;;;18.64;64.97;98468.34;125649;1095;103064;-76
2021/06/21 03:37:42;;;;;;;13.67;6.00;;;;;;;18.67;65.12;98464.47;125654;1096;102972;-74
2021/06/21 03:40:11;;;;;;;17.70;5.90;;;;;;;18.71;65.11;98465.80;125668;1096;102946;-74
2021/06/21 03:42:42;;;;;;;20.27;6.67;;;;;;;18.75;64.77;98475.16;125626;1096;102948;-72
2021/06/21 03:45:11;;;;;;;14.43;5.77;;;;;;;18.81;65.08;98470.94;125676;1096;103036;-72
2021/06/21 03:47:41;;;;;;;16.93;6.60;;;;;;;18.87;65.08;98472.92;125647;1096;102916;-74
2021/06/21 03:50:10;;;;;;;13.03;6.10;;;;;;;18.94;65.29;98463.10;125627;1096;102925;-73
2021/06/21 03:52:39;;;;;;;15.83;6.00;;;;;;;19.00;65.02;98465.08;125615;1096;103854;-82
2021/06/21 03:55:09;;;;;;;17.13;6.40;;;;;;;19.07;65.35;98467.05;125709;1096;103040;-76
2021/06/21 03:57:44;;;;;;;18.10;5.67;;;;;;;19.11;65.29;98466.53;125714;1096;103428;-72
2021/06/21 04:00:27;;;;;;;15.10;5.03;;;;;;;19.16;65.14;98476.75;125638;1095;102922;-71
2021/06/21 04:03:00;;;;;;;11.87;4.70;;;;;;;19.22;65.36;98473.33;125671;1097;102937;-70
2021/06/21 04:05:30;;;;;;;13.63;5.03;;;;;;;19.30;65.64;98475.11;125645;1095;102971;-73
2021/06/21 04:07:58;;;;;;;14.23;5.37;;;;;;;19.34;65.25;98468.33;125586;1096;102980;-69
2021/06/21 04:10:27;;;;;;;12.10;4.97;;;;;;;19.39;65.28;98479.41;125541;1096;103074;-73
2021/06/21 04:12:57;;;;;;;13.17;5.13;;;;;;;19.44;65.63;98476.16;125550;1095;103037;-70
2021/06/21 04:15:29;;;;;;;14.73;4.97;;;;;;;19.49;65.43;98471.05;125516;1095;102918;-69
2021/06/21 04:17:59;;;;;;;12.00;4.80;;;;;;;19.52;65.50;98473.38;125752;1095;102988;-70
2021/06/21 04:20:30;;;;;;;15.47;4.97;;;;;;;19.57;65.33;98467.42;125537;1094;103003;-70
2021/06/21 04:23:00;;;;;;;11.20;4.53;;;;;;;19.60;65.22;98476.00;125555;1095;103444;-71
2021/06/21 04:25:29;;;;;;;15.50;4.60;;;;;;;19.65;65.24;98475.44;125574;1095;102932;-70
2021/06/21 04:28:06;;;;;;;17.53;4.90;;;;;;;19.69;65.40;98475.92;125514;1095;103489;-71
2021/06/21 04:30:38;;;;;;;13.83;5.20;;;;;;;19.73;65.45;98478.05;125633;1096;102939;-71
2021/06/21 04:33:09;;;;;;;14.67;5.17;;;;;;;19.79;65.35;98480.02;125624;1095;103032;-71
2021/06/21 04:35:38;;;;;;;11.37;4.50;;;;;;;19.83;65.31;98468.84;125595;1095;103072;-70
2021/06/21 04:38:06;;;;;;;15.90;4.97;;;;;;;19.87;65.53;98476.38;125617;1095;102909;-71
2021/06/21 04:40:38;;;;;;;15.97;6.30;;;;;;;19.90;65.54;98477.91;125700;1095;103012;-70
2021/06/21 04:43:06;;;;;;;15.57;5.57;;;;;;;19.92;65.54;98470.47;125645;1096;103091;-72
2021/06/21 04:45:37;;;;;;;15.43;5.23;;;;;;;19.97;65.41;98475.29;125674;1096;103039;-72
2021/06/21 04:48:08;;;;;;;16.33;5.60;;;;;;;20.00;65.63;98483.84;125692;1096;103012;-71
2021/06/21 04:50:41;;;;;;;28.50;14.47;;;;;;;20.05;65.51;98481.42;125514;1096;103147;-71
2021/06/21 04:53:13;;;;;;;21.95;9.75;;;;;;;20.11;65.54;98479.00;125707;1095;103392;-71
2021/06/21 04:55:43;;;;;;;14.73;5.93;;;;;;;20.13;65.57;98472.41;125707;1096;103053;-71
2021/06/21 04:58:13;;;;;;;17.30;5.60;;;;;;;20.18;65.48;98474.52;125630;1096;103032;-73
2021/06/21 05:00:42;;;;;;;13.40;5.30;;;;;;;20.22;65.72;98467.73;125665;1096;103015;-71
2021/06/21 05:03:11;;;;;;;17.10;5.70;;;;;;;20.28;65.81;98477.77;125633;1095;103077;-71
2021/06/21 05:05:39;;;;;;;19.20;5.27;;;;;;;20.33;65.48;98486.15;125676;1096;102927;-71
2021/06/21 05:08:10;;;;;;;17.60;5.40;;;;;;;20.39;65.49;98487.25;125714;1096;103009;-74
2021/06/21 05:10:38;;;;;;;13.10;4.70;;;;;;;20.46;65.71;98488.16;125631;1096;103063;-71
2021/06/21 05:13:08;;;;;;;17.63;5.97;;;;;;;20.52;65.58;98491.96;125683;1097;103026;-71
2021/06/21 05:15:39;;;;;;;16.97;6.23;;;;;;;20.59;65.61;98490.17;125654;1096;103167;-73
2021/06/21 05:18:07;;;;;;;15.40;4.67;;;;;;;20.65;65.48;98485.86;125717;1097;103030;-73
2021/06/21 05:20:36;;;;;;;15.90;4.60;;;;;;;20.70;65.44;98490.71;125684;1096;103028;-74
2021/06/21 05:23:04;;;;;;;11.65;4.45;;;;;;;20.79;65.57;98494.97;125649;1096;103073;-71
2021/06/21 05:25:35;;;;;;;14.03;4.43;;;;;;;20.84;65.64;98484.42;125715;1096;103015;-72
2021/06/21 05:28:04;;;;;;;14.63;5.03;;;;;;;20.91;65.65;98488.03;125637;1096;103012;-70
2021/06/21 05:30:32;;;;;;;14.13;4.47;;;;;;;20.99;65.48;98487.06;125659;1096;103012;-71
2021/06/21 05:33:01;;;;;;;13.23;4.47;;;;;;;21.08;65.55;98479.68;125708;1095;102919;-74
2021/06/21 05:35:29;;;;;;;13.70;4.57;;;;;;;21.20;65.30;98485.39;125654;1095;102943;-72
2021/06/21 05:37:57;;;;;;;10.60;4.00;;;;;;;21.34;65.55;98487.19;125652;1095;103028;-71
2021/06/21 05:40:26;;;;;;;14.10;3.90;;;;;;;21.67;65.43;98483.06;125659;1096;103065;-71
2021/06/21 05:42:58;;;;;;;12.03;4.13;;;;;;;22.32;65.11;98477.38;125697;1097;102937;-71
2021/06/21 05:45:27;;;;;;;17.60;4.10;;;;;;;22.99;64.68;98482.98;125663;1096;103066;-71
2021/06/21 05:47:58;;;;;;;12.70;4.17;;;;;;;23.52;65.00;98484.08;125691;1096;102940;-71
2021/06/21 05:50:26;;;;;;;16.30;3.97;;;;;;;23.76;64.61;98487.16;125687;1096;102918;-72
2021/06/21 05:52:55;;;;;;;15.27;4.00;;;;;;;23.88;64.36;98490.91;125641;1096;102913;-71
2021/06/21 05:55:26;;;;;;;14.87;3.93;;;;;;;23.89;64.66;98489.02;125685;1096;103017;-72
2021/06/21 05:57:54;;;;;;;15.33;3.70;;;;;;;23.91;64.68;98485.05;125698;1095;103088;-71
2021/06/21 06:00:25;;;;;;;11.87;3.37;;;;;;;23.98;64.13;98489.64;125643;1095;102197;-72
2021/06/21 06:02:54;;;;;;;12.10;3.35;;;;;;;23.97;64.05;98490.69;125661;1096;103012;-69
2021/06/21 06:05:25;;;;;;;12.13;3.57;;;;;;;23.98;63.86;98485.06;125654;1095;102974;-73
2021/06/21 06:07:56;;;;;;;15.40;3.43;;;;;;;24.01;63.61;98478.38;125683;1096;102933;-70
2021/06/21 06:10:24;;;;;;;13.23;3.67;;;;;;;24.11;64.11;98486.08;125658;1094;102956;-70
2021/06/21 06:12:53;;;;;;;14.30;4.07;;;;;;;24.25;63.35;98481.42;125655;1095;103071;-71
2021/06/21 06:15:23;;;;;;;14.10;3.60;;;;;;;24.41;63.90;98482.81;125780;1095;103000;-71
2021/06/21 06:17:54;;;;;;;15.08;3.75;;;;;;;24.58;63.45;98481.28;125676;1096;102941;-72
2021/06/21 06:20:23;;;;;;;12.33;2.93;;;;;;;24.81;63.24;98488.06;125660;1096;103014;-72
2021/06/21 06:22:53;;;;;;;15.23;3.43;;;;;;;24.90;62.93;98480.47;125682;1096;103610;-72
2021/06/21 06:25:24;;;;;;;11.20;3.57;;;;;;;24.93;62.57;98486.33;125634;1096;103697;-73
2021/06/21 06:27:55;;;;;;;16.63;3.67;;;;;;;24.92;62.22;98484.66;125653;1096;102919;-71
2021/06/21 06:30:27;;;;;;;19.23;4.90;;;;;;;25.03;62.37;98487.73;125690;1095;103018;-72
2021/06/21 06:32:57;;;;;;;15.83;3.70;;;;;;;25.18;61.94;98479.24;125702;1095;102952;-72
2021/06/21 06:35:26;;;;;;;17.90;4.13;;;;;;;25.35;61.88;98480.34;125673;1094;103039;-71
2021/06/21 06:37:56;;;;;;;11.07;3.10;;;;;;;25.53;62.16;98471.41;125673;1095;102948;-70
2021/06/21 06:40:24;;;;;;;17.47;2.90;;;;;;;25.58;60.83;98475.36;125680;1096;102937;-72
2021/06/21 06:42:54;;;;;;;12.50;3.30;;;;;;;25.53;61.02;98470.59;125690;1095;102921;-72
2021/06/21 06:45:28;;;;;;;9.80;2.75;;;;;;;25.53;61.11;98476.04;125705;1096;102990;-71
2021/06/21 06:47:56;;;;;;;10.03;3.10;;;;;;;25.63;60.51;98476.38;125711;1096;103028;-70
2021/06/21 06:50:27;;;;;;;10.00;3.50;;;;;;;25.81;60.78;98471.98;125643;1096;103093;-72
2021/06/21 06:52:59;;;;;;;11.20;3.23;;;;;;;25.93;59.65;98477.52;125690;1095;103000;-71
2021/06/21 06:58:20;;;;;;;13.97;3.37;;;;;;;26.03;59.76;98453.30;125684;1096;102916;-72
2021/06/21 07:00:48;;;;;;;18.20;3.63;;;;;;;26.24;59.44;98462.11;125646;1094;103012;-71
2021/06/21 07:03:19;;;;;;;11.73;3.33;;;;;;;26.53;59.33;98456.91;125684;1096;103060;-71
2021/06/21 07:05:47;;;;;;;12.30;3.30;;;;;;;26.87;58.61;98460.01;125668;1096;102939;-73
2021/06/21 07:08:16;;;;;;;11.97;3.77;;;;;;;27.80;57.98;98459.52;125690;1095;103001;-70
2021/06/21 07:10:44;;;;;;;19.40;3.23;;;;;;;29.00;56.95;98454.50;125689;1095;103010;-72
2021/06/21 07:13:12;;;;;;;13.07;3.30;;;;;;;30.06;57.41;98450.13;125670;1094;102937;-72
2021/06/21 07:15:41;;;;;;;18.65;3.10;;;;;;;31.18;57.01;98448.83;125621;1095;103055;-71
2021/06/21 07:18:09;;;;;;;13.80;3.30;;;;;;;32.19;57.11;98458.27;125688;1095;103344;-70
2021/06/21 07:20:37;;;;;;;17.37;3.03;;;;;;;32.92;56.90;98454.64;125675;1096;102951;-71
2021/06/21 07:23:06;;;;;;;15.97;3.40;;;;;;;33.72;56.68;98459.86;125681;1096;102931;-71
2021/06/21 07:25:34;;;;;;;9.50;2.73;;;;;;;34.50;56.66;98457.66;125691;1095;103025;-71
2021/06/21 07:28:03;;;;;;;9.47;2.63;;;;;;;35.00;55.82;98452.13;125665;1095;103073;-71
2021/06/21 07:30:31;;;;;;;9.40;3.00;;;;;;;35.55;56.00;98451.94;125710;1095;102918;-71
2021/06/21 07:33:00;;;;;;;17.43;3.60;;;;;;;36.10;55.54;98458.27;125654;1096;103071;-72
2021/06/21 07:35:31;;;;;;;16.20;5.10;;;;;;;36.78;55.58;98450.70;125654;1096;103005;-71
2021/06/21 07:37:59;;;;;;;10.43;2.87;;;;;;;37.34;54.70;98462.84;125675;1094;103013;-71
2021/06/21 07:40:27;;;;;;;15.47;3.30;;;;;;;37.46;54.02;98456.86;125628;1096;103058;-72
2021/06/21 07:42:58;;;;;;;13.03;3.17;;;;;;;37.90;53.77;98471.28;125663;1095;103934;-71
2021/06/21 07:45:27;;;;;;;13.03;3.10;;;;;;;38.42;53.56;98464.73;125648;1096;102919;-72
2021/06/21 07:47:59;;;;;;;16.83;3.50;;;;;;;38.99;52.52;98455.09;125636;1096;102933;-71
2021/06/21 07:50:31;;;;;;;;;;;;;;;39.34;51.00;98462.88;125737;1096;102929;-70
2021/06/21 07:53:03;;;;;;;13.13;3.60;;;;;;;39.79;51.40;98465.59;125637;1096;103171;-71
2021/06/21 07:55:35;;;;;;;14.33;3.40;;;;;;;40.06;50.86;98454.56;125714;1095;103036;-71
2021/06/21 07:58:06;;;;;;;;;;;;;;;40.24;48.83;98450.69;125575;1096;102911;-71
2021/06/21 08:00:39;;;;;;;13.83;3.00;;;;;;;40.16;47.98;98451.45;125608;1095;103315;-72
2021/06/21 08:03:10;;;;;;;8.30;2.67;;;;;;;38.57;44.75;98449.67;125529;1096;102986;-72
2021/06/21 08:05:42;;;;;;;15.88;3.45;;;;;;;37.93;46.63;98442.11;125595;1094;102935;-71
2021/06/21 08:08:13;;;;;;;13.70;3.07;;;;;;;38.29;46.55;98446.93;125549;1096;103502;-71
2021/06/21 08:10:41;;;;;;;13.90;3.90;;;;;;;38.63;45.84;98431.75;125566;1094;103004;-72
2021/06/21 08:13:09;;;;;;;13.27;3.17;;;;;;;38.04;43.74;98440.77;125639;1095;102981;-72
2021/06/21 08:15:38;;;;;;;13.03;3.20;;;;;;;38.22;44.51;98436.23;125654;1094;102911;-71
2021/06/21 08:18:07;;;;;;;12.37;3.17;;;;;;;38.56;44.24;98431.36;125677;1096;103075;-72
2021/06/21 08:20:44;;;;;;;19.73;3.47;;;;;;;39.05;44.07;98420.47;125651;1095;103033;-71
2021/06/21 08:23:17;;;;;;;12.30;3.37;;;;;;;39.39;43.38;98421.83;125603;1096;103014;-72
2021/06/21 08:25:48;;;;;;;14.27;3.47;;;;;;;39.67;43.43;98416.09;125714;1097;102916;-73
2021/06/21 08:28:19;;;;;;;16.37;3.67;;;;;;;39.80;43.26;98408.80;125621;1095;103383;-72
2021/06/21 08:30:49;;;;;;;16.17;3.43;;;;;;;39.63;39.93;98417.03;125583;1095;102945;-72
2021/06/21 08:33:18;;;;;;;16.13;4.07;;;;;;;38.72;41.27;98421.50;125601;1097;103005;-71
2021/06/21 08:35:53;;;;;;;17.75;3.40;;;;;;;38.69;40.96;98412.98;125651;1096;103028;-71
2021/06/21 08:38:22;;;;;;;13.98;3.30;;;;;;;38.92;41.01;98402.73;125622;1095;102916;-73
2021/06/21 08:40:50;;;;;;;15.70;3.90;;;;;;;38.84;40.17;98409.84;125752;1097;103038;-71
2021/06/21 08:43:19;;;;;;;16.53;4.20;;;;;;;38.57;39.89;98406.03;125678;1095;103051;-70
2021/06/21 08:45:48;;;;;;;19.63;4.00;;;;;;;38.47;39.61;98406.29;125561;1096;103185;-71
2021/06/21 08:48:21;;;;;;;;;;;;;;;38.47;39.41;98402.67;125726;1096;102915;-72
2021/06/21 08:50:50;;;;;;;20.23;4.35;;;;;;;38.26;39.09;98401.16;125703;1096;102981;-71
2021/06/21 08:53:21;;;;;;;20.43;4.60;;;;;;;37.97;38.92;98409.83;125720;1096;103038;-72
2021/06/21 08:55:53;;;;;;;26.40;5.20;;;;;;;37.96;38.69;98408.19;125684;1095;103174;-72
2021/06/21 08:58:24;;;;;;;;;;;;;;;38.15;38.49;98396.15;125692;1096;103368;-72
2021/06/21 09:00:52;;;;;;;19.80;4.15;;;;;;;38.30;38.47;98401.38;125676;1096;103093;-71
2021/06/21 09:03:21;;;;;;;24.03;4.77;;;;;;;38.07;38.28;98406.84;125703;1097;103090;-72
2021/06/21 09:05:52;;;;;;;22.55;4.75;;;;;;;37.85;38.07;98399.23;125692;1096;103029;-72
2021/06/21 09:08:21;;;;;;;25.83;4.97;;;;;;;37.61;37.80;98400.27;125644;1096;103121;-72
2021/06/21 09:10:53;;;;;;;19.20;4.73;;;;;;;37.46;37.83;98406.11;125681;1095;102921;-72
2021/06/21 09:13:32;;;;;;;29.17;5.97;;;;;;;37.36;37.52;98399.58;125653;1096;103001;-71
2021/06/21 09:16:01;;;;;;;22.47;4.37;;;;;;;37.30;37.41;98397.22;125642;1095;103038;-72
2021/06/21 09:18:30;;;;;;;22.63;5.27;;;;;;;37.11;37.29;98400.87;125693;1096;103037;-72
2021/06/21 09:21:24;;;;;;;22.47;4.33;;;;;;;36.94;37.10;98393.09;125614;1095;103069;-71
2021/06/21 09:24:14;;;;;;;72.23;18.53;;;;;;;36.82;37.02;98390.80;125675;1096;103068;-71
2021/06/21 09:26:50;;;;;;;252.57;49.10;;;;;;;36.67;36.75;98391.07;125576;1094;103031;-70
2021/06/21 09:29:38;;;;;;;59.60;14.33;;;;;;;36.46;36.49;98396.88;125647;1096;103039;-72
2021/06/21 09:32:50;;;;;;;38.07;8.30;;;;;;;36.19;36.53;98384.53;125720;1095;103151;-71
2021/06/21 09:35:31;;;;;;;26.20;6.00;;;;;;;36.01;36.35;98384.20;125658;1096;102716;-71
2021/06/21 09:38:17;;;;;;;135.03;14.53;;;;;;;35.82;36.59;98391.63;125689;1096;103050;-71
2021/06/21 09:40:53;;;;;;;25.33;5.70;;;;;;;35.32;35.67;98385.21;125692;1094;102945;-74
2021/06/21 09:43:28;;;;;;;30.50;5.80;;;;;;;35.03;35.37;98396.30;125676;1097;102944;-73
2021/06/21 09:46:21;;;;;;;27.20;4.30;;;;;;;34.81;35.80;98389.24;125668;1095;103188;-73
2021/06/21 09:48:54;;;;;;;30.03;5.40;;;;;;;34.67;35.47;98391.84;125626;1095;103017;-71
2021/06/21 09:51:27;;;;;;;29.20;5.20;;;;;;;34.53;35.64;98388.91;125656;1095;102920;-70
2021/06/21 09:54:11;;;;;;;32.50;5.50;;;;;;;34.53;35.72;98379.78;125599;1095;102910;-69
2021/06/21 09:56:56;;;;;;;22.27;4.30;;;;;;;34.48;35.27;98380.66;125663;1096;102945;-70
2021/06/21 09:59:33;;;;;;;32.83;8.00;;;;;;;34.48;35.16;98374.30;125641;1095;103096;-69
2021/06/21 10:02:28;;;;;;;39.75;7.95;;;;;;;34.32;35.26;98377.14;125622;1095;103134;-71
2021/06/21 10:05:01;;;;;;;20.87;4.83;;;;;;;34.12;35.08;98367.86;125700;1096;103004;-69
2021/06/21 10:07:34;;;;;;;16.27;3.87;;;;;;;33.85;35.25;98360.80;125656;1096;102974;-71
2021/06/21 10:10:18;;;;;;;19.50;5.47;;;;;;;33.44;35.30;98376.65;125594;1096;103012;-70
2021/06/21 10:12:51;;;;;;;21.07;4.57;;;;;;;33.19;34.82;98375.58;125531;1096;102927;-68
2021/06/21 10:15:23;;;;;;;16.27;4.00;;;;;;;32.89;35.22;98380.83;125658;1096;103012;-69
2021/06/21 10:17:52;;;;;;;21.17;4.17;;;;;;;32.74;35.23;98367.86;125677;1096;103005;-71
2021/06/21 10:20:20;;;;;;;24.07;4.33;;;;;;;32.53;35.10;98375.28;125683;1096;103167;-70
2021/06/21 10:22:50;;;;;;;16.90;4.30;;;;;;;32.42;35.29;98374.44;125680;1094;102993;-73
2021/06/21 10:25:19;;;;;;;15.70;3.63;;;;;;;32.32;35.23;98367.00;125684;1096;102950;-72
2021/06/21 10:27:48;;;;;;;20.20;4.53;;;;;;;32.22;35.19;98376.01;125672;1095;103012;-70
2021/06/21 10:30:22;;;;;;;18.55;4.30;;;;;;;32.03;35.05;98364.67;125652;1096;102920;-70
2021/06/21 10:32:53;;;;;;;16.93;4.20;;;;;;;31.88;35.46;98378.39;125648;1097;103012;-70
2021/06/21 10:35:30;;;;;;;20.90;5.00;;;;;;;31.82;35.44;98382.21;125700;1096;103020;-70
2021/06/21 10:38:05;;;;;;;19.33;4.60;;;;;;;31.78;35.54;98366.25;125654;1096;102919;-70
2021/06/21 10:41:10;;;;;;;22.43;5.50;;;;;;;31.69;35.39;98372.51;125523;1096;102969;-68
2021/06/21 10:43:53;;;;;;;17.60;4.47;;;;;;;31.33;35.22;98373.13;125525;1094;102989;-67
2021/06/21 10:46:31;;;;;;;18.33;5.43;;;;;;;31.03;35.55;98372.62;125607;1094;103063;-67
2021/06/21 10:49:01;;;;;;;20.40;4.80;;;;;;;31.07;35.93;98375.69;125662;1096;103012;-68
2021/06/21 10:51:43;;;;;;;25.38;5.70;;;;;;;30.99;35.74;98373.42;125681;1096;103027;-66
2021/06/21 10:54:27;;;;;;;20.93;5.03;;;;;;;30.98;36.06;98364.34;125631;1095;102908;-67
2021/06/21 10:57:03;;;;;;;21.57;4.47;;;;;;;31.01;35.97;98365.75;125652;1096;102942;-66
2021/06/21 10:59:31;;;;;;;17.50;5.25;;;;;;;30.97;36.36;98370.95;125641;1096;103015;-66
2021/06/21 11:02:06;;;;;;;25.37;5.40;;;;;;;30.98;36.07;98369.83;125679;1095;102939;-66
2021/06/21 11:04:38;;;;;;;22.73;5.33;;;;;;;30.99;36.13;98365.19;125658;1095;103009;-66
2021/06/21 11:07:22;;;;;;;19.73;4.03;;;;;;;31.02;36.05;98370.96;125648;1096;103134;-67
2021/06/21 11:10:01;;;;;;;16.87;4.17;;;;;;;30.90;36.59;98356.61;125694;1095;103443;-68
2021/06/21 11:12:35;;;;;;;;;;;;;;;30.86;36.84;98355.48;125672;1095;102919;-67
2021/06/21 11:15:09;;;;;;;;;;;;;;;30.81;36.39;98358.99;125712;1095;102911;-72
2021/06/21 11:17:52;;;;;;;17.30;4.45;;;;;;;30.74;36.71;98361.16;125672;1096;103010;-69
2021/06/21 11:20:26;;;;;;;29.50;4.77;;;;;;;30.70;36.78;98363.58;125658;1094;103004;-70
2021/06/21 11:23:02;;;;;;;16.93;4.07;;;;;;;30.71;36.83;98373.47;125719;1095;102916;-70
2021/06/21 11:25:50;;;;;;;18.73;4.17;;;;;;;30.37;36.56;98364.59;125628;1096;103016;-71
2021/06/21 11:28:40;;;;;;;16.70;4.20;;;;;;;30.04;36.85;98359.06;125658;1097;103020;-71
2021/06/21 11:31:32;;;;;;;16.50;4.20;;;;;;;29.97;37.18;98353.77;125691;1094;102945;-72
2021/06/21 11:34:06;;;;;;;11.37;3.97;;;;;;;30.02;37.57;98357.65;125587;1096;102978;-71
2021/06/21 11:36:43;;;;;;;23.20;4.43;;;;;;;30.09;37.02;98359.13;125700;1094;103068;-72
2021/06/21 11:39:22;;;;;;;17.80;4.63;;;;;;;30.19;37.34;98357.56;125658;1096;102933;-73
2021/06/21 11:42:08;;;;;;;12.40;3.73;;;;;;;30.15;37.12;98360.00;125671;1094;102942;-72